Observation data for Roaring Springs on 09/11/2017      Previous  Date  Next       Current Mesonet Observations  Soil Data  Daily Summary Page  Observations in Plain Language
KRRS 110500Z 18004KT 18/10 A3022 RMK A01 T01810100  RH  060%=      5-min Rain = 0
KRRS 110505Z 18004KT 18/10 A3022 RMK A01 T01790099  RH  060%=      5-min Rain = 0
KRRS 110510Z 18004KT 18/10 A3022 RMK A01 T01790099  RH  060%=      5-min Rain = 0
KRRS 110515Z 18005KT 18/10 A3022 RMK A01 T01790099  RH  060%=      5-min Rain = 0
KRRS 110520Z 19004KT 18/10 A3022 RMK A01 T01760099  RH  062%=      5-min Rain = 0
KRRS 110525Z 19004KT 17/10 A3022 RMK A01 T01710098  RH  063%=      5-min Rain = 0
KRRS 110530Z 19005KT 17/10 A3022 RMK A01 T01690098  RH  064%=      5-min Rain = 0
KRRS 110535Z 19004KT 17/10 A3022 RMK A01 T01700098  RH  063%=      5-min Rain = 0
KRRS 110540Z 19004KT 17/10 A3022 RMK A01 T01690098  RH  064%=      5-min Rain = 0
KRRS 110545Z 19004KT 17/10 A3022 RMK A01 T01680098  RH  064%=      5-min Rain = 0
KRRS 110550Z 19004KT 17/10 A3022 RMK A01 T01680098  RH  064%=      5-min Rain = 0
KRRS 110555Z 19004KT 17/10 A3022 RMK A01 T01660098  RH  065%=      5-min Rain = 0
KRRS 110600Z 19004KT 17/10 A3022 RMK A01 T01670097  RH  065%=      5-min Rain = 0
KRRS 110605Z 18004KT 17/10 A3022 RMK A01 T01680098  RH  064%=      5-min Rain = 0
KRRS 110610Z 18005KT 17/10 A3022 RMK A01 T01680098  RH  064%=      5-min Rain = 0
KRRS 110615Z 18005KT 17/10 A3022 RMK A01 T01680099  RH  065%=      5-min Rain = 0
KRRS 110620Z 19004KT 17/10 A3021 RMK A01 T01670098  RH  065%=      5-min Rain = 0
KRRS 110625Z 19004KT 17/10 A3021 RMK A01 T01690098  RH  064%=      5-min Rain = 0
KRRS 110630Z 21004KT 17/10 A3021 RMK A01 T01720098  RH  063%=      5-min Rain = 0
KRRS 110635Z 21004KT 17/10 A3021 RMK A01 T01670098  RH  065%=      5-min Rain = 0
KRRS 110640Z 21004KT 16/10 A3021 RMK A01 T01640098  RH  066%=      5-min Rain = 0
KRRS 110645Z 20005KT 16/10 A3022 RMK A01 T01620098  RH  067%=      5-min Rain = 0
KRRS 110650Z 21004KT 16/10 A3022 RMK A01 T01610098  RH  067%=      5-min Rain = 0
KRRS 110655Z 20004KT 16/10 A3022 RMK A01 T01610098  RH  067%=      5-min Rain = 0
KRRS 110700Z 20004KT 16/10 A3022 RMK A01 T01620098  RH  067%=      5-min Rain = 0
KRRS 110705Z 19004KT 16/10 A3022 RMK A01 T01620098  RH  067%=      5-min Rain = 0
KRRS 110710Z 18004KT 16/10 A3021 RMK A01 T01640098  RH  066%=      5-min Rain = 0
KRRS 110715Z 18005KT 17/10 A3021 RMK A01 T01670099  RH  065%=      5-min Rain = 0
KRRS 110720Z 17005KT 17/10 A3021 RMK A01 T01660099  RH  065%=      5-min Rain = 0
KRRS 110725Z 17005KT 17/10 A3021 RMK A01 T01660099  RH  066%=      5-min Rain = 0
KRRS 110730Z 18005KT 17/10 A3021 RMK A01 T01650100  RH  066%=      5-min Rain = 0
KRRS 110735Z 19005KT 16/10 A3021 RMK A01 T01620098  RH  067%=      5-min Rain = 0
KRRS 110740Z 19005KT 16/10 A3021 RMK A01 T01570098  RH  069%=      5-min Rain = 0
KRRS 110745Z 20005KT 15/10 A302 RMK A01 T01520097  RH  071%=      5-min Rain = 0
KRRS 110750Z 20005KT 15/10 A3021 RMK A01 T01510097  RH  072%=      5-min Rain = 0
KRRS 110755Z 20006KT 15/10 A3021 RMK A01 T01500097  RH  072%=      5-min Rain = 0
KRRS 110800Z 21005KT 15/10 A3021 RMK A01 T01490097  RH  072%=      5-min Rain = 0
KRRS 110805Z 21005KT 15/10 A302 RMK A01 T01480097  RH  073%=      5-min Rain = 0
KRRS 110810Z 21006KT 15/10 A302 RMK A01 T01490098  RH  073%=      5-min Rain = 0
KRRS 110815Z 21006KT 15/10 A302 RMK A01 T01470097  RH  073%=      5-min Rain = 0
KRRS 110820Z 21006KT 15/10 A302 RMK A01 T01450097  RH  075%=      5-min Rain = 0
KRRS 110825Z 20006KT 14/10 A302 RMK A01 T01440098  RH  075%=      5-min Rain = 0
KRRS 110830Z 21006KT 14/10 A302 RMK A01 T01440098  RH  075%=      5-min Rain = 0
KRRS 110835Z 21006KT 14/10 A302 RMK A01 T01440098  RH  075%=      5-min Rain = 0
KRRS 110840Z 21006KT 14/10 A302 RMK A01 T01430098  RH  075%=      5-min Rain = 0
KRRS 110845Z 22006KT 14/10 A302 RMK A01 T01430098  RH  076%=      5-min Rain = 0
KRRS 110850Z 22006KT 14/10 A302 RMK A01 T01410098  RH  076%=      5-min Rain = 0
KRRS 110855Z 23006KT 14/10 A302 RMK A01 T01400098  RH  077%=      5-min Rain = 0
KRRS 110900Z 23006KT 14/10 A302 RMK A01 T01400098  RH  077%=      5-min Rain = 0
KRRS 110905Z 23006KT 14/10 A302 RMK A01 T01400098  RH  077%=      5-min Rain = 0
KRRS 110910Z 23005KT 14/10 A302 RMK A01 T01390098  RH  078%=      5-min Rain = 0
KRRS 110915Z 23005KT 14/10 A302 RMK A01 T01390098  RH  078%=      5-min Rain = 0
KRRS 110920Z 22005KT 14/10 A302 RMK A01 T01390098  RH  078%=      5-min Rain = 0
KRRS 110925Z 21005KT 14/10 A302 RMK A01 T01400098  RH  077%=      5-min Rain = 0
KRRS 110930Z 21006KT 14/10 A302 RMK A01 T01410099  RH  077%=      5-min Rain = 0
KRRS 110935Z 21006KT 14/10 A302 RMK A01 T01400099  RH  078%=      5-min Rain = 0
KRRS 110940Z 22005KT 14/10 A302 RMK A01 T01390099  RH  078%=      5-min Rain = 0
KRRS 110945Z 22005KT 14/10 A302 RMK A01 T01390100  RH  078%=      5-min Rain = 0
KRRS 110950Z 22005KT 14/10 A302 RMK A01 T01400101  RH  078%=      5-min Rain = 0
KRRS 110955Z 22005KT 14/10 A302 RMK A01 T01420101  RH  078%=      5-min Rain = 0
KRRS 111000Z 22005KT 14/10 A302 RMK A01 T01420102  RH  078%=      5-min Rain = 0
KRRS 111005Z 22005KT 14/10 A302 RMK A01 T01430102  RH  077%=      5-min Rain = 0
KRRS 111010Z 23005KT 14/10 A302 RMK A01 T01430101  RH  077%=      5-min Rain = 0
KRRS 111015Z 22005KT 14/10 A302 RMK A01 T01420101  RH  078%=      5-min Rain = 0
KRRS 111020Z 23006KT 14/10 A302 RMK A01 T01400101  RH  078%=      5-min Rain = 0
KRRS 111025Z 23006KT 14/10 A302 RMK A01 T01400101  RH  079%=      5-min Rain = 0
KRRS 111030Z 23006KT 14/10 A302 RMK A01 T01400101  RH  079%=      5-min Rain = 0
KRRS 111035Z 22006KT 14/10 A302 RMK A01 T01400102  RH  079%=      5-min Rain = 0
KRRS 111040Z 22006KT 14/10 A302 RMK A01 T01400102  RH  079%=      5-min Rain = 0
KRRS 111045Z 22007KT 14/10 A302 RMK A01 T01380101  RH  080%=      5-min Rain = 0
KRRS 111050Z 22006KT 14/10 A302 RMK A01 T01360101  RH  080%=      5-min Rain = 0
KRRS 111055Z 22006KT 14/10 A302 RMK A01 T01350101  RH  081%=      5-min Rain = 0
KRRS 111100Z 22006KT 14/10 A302 RMK A01 T01350100  RH  081%=      5-min Rain = 0
KRRS 111105Z 24006KT 13/10 A3021 RMK A01 T01340100  RH  081%=      5-min Rain = 0
KRRS 111110Z 24006KT 13/10 A302 RMK A01 T01340100  RH  081%=      5-min Rain = 0
KRRS 111115Z 23007KT 13/10 A302 RMK A01 T01330100  RH  082%=      5-min Rain = 0
KRRS 111120Z 24007KT 13/10 A302 RMK A01 T01320100  RH  082%=      5-min Rain = 0
KRRS 111125Z 24007KT 13/10 A302 RMK A01 T01320100  RH  082%=      5-min Rain = 0
KRRS 111130Z 24007KT 13/10 A302 RMK A01 T01310100  RH  083%=      5-min Rain = 0
KRRS 111135Z 23007KT 13/10 A302 RMK A01 T01310100  RH  083%=      5-min Rain = 0
KRRS 111140Z 24008KT 13/10 A302 RMK A01 T01310100  RH  083%=      5-min Rain = 0
KRRS 111145Z 23008KT 13/10 A302 RMK A01 T01320101  RH  083%=      5-min Rain = 0
KRRS 111150Z 23007KT 13/10 A302 RMK A01 T01330101  RH  082%=      5-min Rain = 0
KRRS 111155Z 23007KT 13/10 A302 RMK A01 T01320100  RH  083%=      5-min Rain = 0
KRRS 111200Z 24007KT 13/10 A302 RMK A01 T01320100  RH  083%=      5-min Rain = 0
KRRS 111205Z 24007KT 13/10 A302 RMK A01 T01330100  RH  082%=      5-min Rain = 0
KRRS 111210Z 24008KT 13/10 A3021 RMK A01 T01330100  RH  082%=      5-min Rain = 0
KRRS 111215Z 24007KT 13/10 A3021 RMK A01 T01330100  RH  082%=      5-min Rain = 0
KRRS 111220Z 23007KT 13/10 A3021 RMK A01 T01330100  RH  082%=      5-min Rain = 0
KRRS 111225Z 23007KT 14/10 A3021 RMK A01 T01350100  RH  081%=      5-min Rain = 0
KRRS 111230Z 24007KT 13/10 A3021 RMK A01 T01340100  RH  081%=      5-min Rain = 0
KRRS 111235Z 24007KT 13/10 A3021 RMK A01 T01340100  RH  081%=      5-min Rain = 0
KRRS 111240Z 23007KT 13/10 A3021 RMK A01 T01340100  RH  081%=      5-min Rain = 0
KRRS 111245Z 23007KT 13/10 A3021 RMK A01 T01340100  RH  081%=      5-min Rain = 0
KRRS 111250Z 23007KT 14/10 A3021 RMK A01 T01350101  RH  081%=      5-min Rain = 0
KRRS 111255Z 23007KT 14/10 A3021 RMK A01 T01370102  RH  081%=      5-min Rain = 0
KRRS 111300Z 24007KT 14/10 A3021 RMK A01 T01380103  RH  081%=      5-min Rain = 0
KRRS 111305Z 24006KT 14/10 A3021 RMK A01 T01400104  RH  080%=      5-min Rain = 0
KRRS 111310Z 24005KT 14/11 A3021 RMK A01 T01420106  RH  080%=      5-min Rain = 0
KRRS 111315Z 23006KT 15/11 A3021 RMK A01 T01460108  RH  079%=      5-min Rain = 0
KRRS 111320Z 23006KT 15/11 A3021 RMK A01 T01500110  RH  078%=      5-min Rain = 0
KRRS 111325Z 23006KT 16/11 A3021 RMK A01 T01570112  RH  076%=      5-min Rain = 0
KRRS 111330Z 22006KT 16/11 A3021 RMK A01 T01620112  RH  074%=      5-min Rain = 0
KRRS 111335Z 22006KT 16/11 A3022 RMK A01 T01640113  RH  073%=      5-min Rain = 0
KRRS 111340Z 22005KT 17/12 A3022 RMK A01 T01670116  RH  073%=      5-min Rain = 0
KRRS 111345Z 22005KT 17/12 A3022 RMK A01 T01710116  RH  071%=      5-min Rain = 0
KRRS 111350Z 22005KT 17/12 A3022 RMK A01 T01740117  RH  070%=      5-min Rain = 0
KRRS 111355Z 21005KT 18/12 A3022 RMK A01 T01780119  RH  069%=      5-min Rain = 0
KRRS 111400Z 21004KT 18/12 A3022 RMK A01 T01820120  RH  069%=      5-min Rain = 0
KRRS 111405Z 21004KT 19/12 A3022 RMK A01 T01850122  RH  068%=      5-min Rain = 0
KRRS 111410Z 22004KT 19/12 A3022 RMK A01 T01890122  RH  066%=      5-min Rain = 0
KRRS 111415Z 21004KT 19/12 A3022 RMK A01 T01930123  RH  065%=      5-min Rain = 0
KRRS 111420Z 20003KT 20/13 A3023 RMK A01 T01980126  RH  064%=      5-min Rain = 0
KRRS 111425Z 21004KT 20/13 A3023 RMK A01 T02030126  RH  062%=      5-min Rain = 0
KRRS 111430Z 21005KT 21/12 A3023 RMK A01 T02060124  RH  060%=      5-min Rain = 0
KRRS 111435Z 23005KT 21/12 A3023 RMK A01 T02120123  RH  058%=      5-min Rain = 0
KRRS 111440Z 23007KT 22/12 A3022 RMK A01 T02160117  RH  054%=      5-min Rain = 0
KRRS 111445Z 24006KT 22/12 A3022 RMK A01 T02200117  RH  053%=      5-min Rain = 0
KRRS 111450Z 23007KT 22/12 A3022 RMK A01 T02210117  RH  053%=      5-min Rain = 0
KRRS 111455Z 23007KT 22/12 A3022 RMK A01 T02220117  RH  052%=      5-min Rain = 0
KRRS 111500Z 22007KT 22/12 A3022 RMK A01 T02240118  RH  052%=      5-min Rain = 0
KRRS 111505Z 21007KT 23/12 A3022 RMK A01 T02270119  RH  051%=      5-min Rain = 0
KRRS 111510Z 20007KT 23/12 A3022 RMK A01 T02280119  RH  051%=      5-min Rain = 0
KRRS 111515Z 22006KT 23/12 A3023 RMK A01 T02290119  RH  051%=      5-min Rain = 0
KRRS 111520Z 21006KT 23/12 A3023 RMK A01 T02340121  RH  050%=      5-min Rain = 0
KRRS 111525Z 20006KT 24/12 A3023 RMK A01 T02360120  RH  049%=      5-min Rain = 0
KRRS 111530Z 22006KT 24/12 A3023 RMK A01 T02370120  RH  049%=      5-min Rain = 0
KRRS 111535Z 19006KT 24/12 A3023 RMK A01 T02390119  RH  048%=      5-min Rain = 0
KRRS 111540Z 20005G10KT 24/12 A3023 RMK A01 T02400121  RH  048%=      5-min Rain = 0
KRRS 111545Z 21004KT 24/12 A3023 RMK A01 T02420120  RH  047%=      5-min Rain = 0
KRRS 111550Z 21006KT 24/12 A3023 RMK A01 T02440120  RH  047%=      5-min Rain = 0
KRRS 111555Z 22004KT 25/12 A3023 RMK A01 T02460120  RH  046%=      5-min Rain = 0
KRRS 111600Z 20006KT 25/12 A3023 RMK A01 T02470118  RH  045%=      5-min Rain = 0
KRRS 111605Z 21004KT 25/12 A3022 RMK A01 T02460119  RH  046%=      5-min Rain = 0
KRRS 111610Z 20003KT 25/12 A3022 RMK A01 T02480119  RH  045%=      5-min Rain = 0
KRRS 111615Z 25005KT 25/12 A3022 RMK A01 T02510117  RH  044%=      5-min Rain = 0
KRRS 111620Z 24005KT 25/12 A3022 RMK A01 T02540122  RH  045%=      5-min Rain = 0
KRRS 111625Z 23004KT 26/12 A3022 RMK A01 T02560119  RH  043%=      5-min Rain = 0
KRRS 111630Z 25006KT 26/12 A3022 RMK A01 T02570117  RH  042%=      5-min Rain = 0
KRRS 111635Z 26004KT 26/12 A3022 RMK A01 T02570117  RH  042%=      5-min Rain = 0
KRRS 111640Z 07001KT 26/12 A3021 RMK A01 T02560117  RH  042%=      5-min Rain = 0
KRRS 111645Z 25004KT 26/12 A3021 RMK A01 T02630121  RH  042%=      5-min Rain = 0
KRRS 111650Z 24002KT 26/12 A3021 RMK A01 T02620118  RH  041%=      5-min Rain = 0
KRRS 111655Z 24004G9KT 26/12 A3021 RMK A01 T02630119  RH  041%=      5-min Rain = 0
KRRS 111700Z 31003KT 26/12 A3021 RMK A01 T02610117  RH  041%=      5-min Rain = 0
KRRS 111705Z 32002KT 26/12 A3021 RMK A01 T02610116  RH  041%=      5-min Rain = 0
KRRS 111710Z 14003KT 26/12 A3021 RMK A01 T02640121  RH  042%=      5-min Rain = 0
KRRS 111715Z 12002KT 27/12 A3021 RMK A01 T02670121  RH  041%=      5-min Rain = 0
KRRS 111720Z 31002G7KT 27/12 A3021 RMK A01 T02720118  RH  039%=      5-min Rain = 0
KRRS 111725Z 34003KT 27/11 A302 RMK A01 T02720114  RH  038%=      5-min Rain = 0
KRRS 111730Z 34001KT 27/11 A302 RMK A01 T02700114  RH  038%=      5-min Rain = 0
KRRS 111735Z 29002G7KT 27/12 A302 RMK A01 T02720116  RH  039%=      5-min Rain = 0
KRRS 111740Z 29005KT 27/11 A302 RMK A01 T02740113  RH  037%=      5-min Rain = 0
KRRS 111745Z 30007KT 27/12 A302 RMK A01 T02720116  RH  039%=      5-min Rain = 0
KRRS 111750Z 31004G9KT 27/12 A3019 RMK A01 T02740117  RH  038%=      5-min Rain = 0
KRRS 111755Z 32004G10KT 28/12 A3019 RMK A01 T02750119  RH  039%=      5-min Rain = 0
KRRS 111800Z 33004KT 28/12 A3019 RMK A01 T02780119  RH  038%=      5-min Rain = 0
KRRS 111805Z 35004KT 28/12 A3019 RMK A01 T02790120  RH  038%=      5-min Rain = 0
KRRS 111810Z 36004KT 28/12 A3018 RMK A01 T02810121  RH  038%=      5-min Rain = 0
KRRS 111815Z 28001KT 28/13 A3018 RMK A01 T02800125  RH  039%=      5-min Rain = 0
KRRS 111820Z 20002KT 28/12 A3018 RMK A01 T02840119  RH  037%=      5-min Rain = 0
KRRS 111825Z 27004KT 29/12 A3018 RMK A01 T02860120  RH  036%=      5-min Rain = 0
KRRS 111830Z 31005KT 29/12 A3018 RMK A01 T02870119  RH  036%=      5-min Rain = 0
KRRS 111835Z 31004KT 29/12 A3017 RMK A01 T02870118  RH  036%=      5-min Rain = 0
KRRS 111840Z 32003G9KT 28/12 A3017 RMK A01 T02840120  RH  037%=      5-min Rain = 0
KRRS 111845Z 12002KT 29/12 A3017 RMK A01 T02860121  RH  037%=      5-min Rain = 0
KRRS 111850Z 01004KT 29/12 A3017 RMK A01 T02910122  RH  036%=      5-min Rain = 0
KRRS 111855Z 34004KT 29/12 A3017 RMK A01 T02920118  RH  035%=      5-min Rain = 0
KRRS 111900Z 03003KT 29/12 A3016 RMK A01 T02890116  RH  035%=      5-min Rain = 0
KRRS 111905Z 32005KT 29/12 A3016 RMK A01 T02910118  RH  035%=      5-min Rain = 0
KRRS 111910Z 02007KT 29/12 A3016 RMK A01 T02930117  RH  034%=      5-min Rain = 0
KRRS 111915Z 04005KT 29/12 A3016 RMK A01 T02920116  RH  034%=      5-min Rain = 0
KRRS 111920Z 06005KT 29/12 A3016 RMK A01 T02910115  RH  034%=      5-min Rain = 0
KRRS 111925Z 10006KT 29/12 A3015 RMK A01 T02890118  RH  035%=      5-min Rain = 0
KRRS 111930Z 12005KT 29/12 A3015 RMK A01 T02920121  RH  035%=      5-min Rain = 0
KRRS 111935Z 10006KT 30/12 A3015 RMK A01 T02950124  RH  035%=      5-min Rain = 0
KRRS 111940Z 05005G15KT 30/12 A3015 RMK A01 T02960118  RH  034%=      5-min Rain = 0
KRRS 111945Z 04006KT 30/12 A3015 RMK A01 T02980119  RH  034%=      5-min Rain = 0
KRRS 111950Z 01006G11KT 30/11 A3014 RMK A01 T02980113  RH  032%=      5-min Rain = 0
KRRS 111955Z 03006G11KT 30/12 A3014 RMK A01 T02980115  RH  033%=      5-min Rain = 0
KRRS 112000Z 04006G11KT 30/12 A3014 RMK A01 T02970115  RH  033%=      5-min Rain = 0
KRRS 112005Z 00004KT 30/11 A3014 RMK A01 T02970114  RH  033%=      5-min Rain = 0
KRRS 112010Z 01002KT 30/12 A3013 RMK A01 T02970115  RH  033%=      5-min Rain = 0
KRRS 112015Z 01004G10KT 30/12 A3013 RMK A01 T03020117  RH  033%=      5-min Rain = 0
KRRS 112020Z 31003KT 30/12 A3013 RMK A01 T03010116  RH  033%=      5-min Rain = 0
KRRS 112025Z 02006G11KT 30/11 A3012 RMK A01 T03010114  RH  032%=      5-min Rain = 0
KRRS 112030Z 01006KT 30/12 A3012 RMK A01 T03010115  RH  032%=      5-min Rain = 0
KRRS 112035Z 31005KT 30/12 A3012 RMK A01 T03020115  RH  032%=      5-min Rain = 0
KRRS 112040Z 05005KT 30/12 A3011 RMK A01 T03020116  RH  032%=      5-min Rain = 0
KRRS 112045Z 07004KT 30/12 A3011 RMK A01 T03020115  RH  032%=      5-min Rain = 0
KRRS 112050Z 01002G7KT 30/12 A3011 RMK A01 T03020115  RH  032%=      5-min Rain = 0
KRRS 112055Z 03006KT 30/11 A3011 RMK A01 T03040114  RH  031%=      5-min Rain = 0
KRRS 112100Z 01005KT 30/11 A3011 RMK A01 T03040114  RH  032%=      5-min Rain = 0
KRRS 112105Z 09006KT 31/12 A301 RMK A01 T03050119  RH  032%=      5-min Rain = 0
KRRS 112110Z 04005KT 30/12 A301 RMK A01 T03020117  RH  033%=      5-min Rain = 0
KRRS 112115Z 03006KT 30/12 A301 RMK A01 T03030115  RH  032%=      5-min Rain = 0
KRRS 112120Z 01005G10KT 30/12 A301 RMK A01 T03020115  RH  032%=      5-min Rain = 0
KRRS 112125Z 35004KT 30/12 A301 RMK A01 T03030116  RH  032%=      5-min Rain = 0
KRRS 112130Z 05005KT 31/12 A3009 RMK A01 T03080118  RH  032%=      5-min Rain = 0
KRRS 112135Z 02005KT 31/11 A3009 RMK A01 T03080114  RH  031%=      5-min Rain = 0
KRRS 112140Z 03006KT 31/12 A3009 RMK A01 T03050115  RH  032%=      5-min Rain = 0
KRRS 112145Z 05003KT 30/11 A3009 RMK A01 T03030114  RH  032%=      5-min Rain = 0
KRRS 112150Z 05006G11KT 31/12 A3009 RMK A01 T03050117  RH  032%=      5-min Rain = 0
KRRS 112155Z 05006KT 31/12 A3009 RMK A01 T03050117  RH  032%=      5-min Rain = 0
KRRS 112200Z 03006KT 31/12 A3009 RMK A01 T03060115  RH  031%=      5-min Rain = 0
KRRS 112205Z 03005KT 31/11 A3009 RMK A01 T03060114  RH  031%=      5-min Rain = 0
KRRS 112210Z 03006KT 31/11 A3009 RMK A01 T03050111  RH  031%=      5-min Rain = 0
KRRS 112215Z 03006KT 31/11 A3009 RMK A01 T03050110  RH  031%=      5-min Rain = 0
KRRS 112220Z 03005KT 30/11 A3009 RMK A01 T03040108  RH  030%=      5-min Rain = 0
KRRS 112225Z 07007KT 30/11 A3009 RMK A01 T03030111  RH  031%=      5-min Rain = 0
KRRS 112230Z 07005KT 30/11 A3009 RMK A01 T03010110  RH  031%=      5-min Rain = 0
KRRS 112235Z 02006KT 30/11 A3008 RMK A01 T03000112  RH  032%=      5-min Rain = 0
KRRS 112240Z 02006KT 30/11 A3008 RMK A01 T03000109  RH  031%=      5-min Rain = 0
KRRS 112245Z 02005KT 30/11 A3008 RMK A01 T03000109  RH  031%=      5-min Rain = 0
KRRS 112250Z 07003G8KT 30/11 A3008 RMK A01 T02990110  RH  032%=      5-min Rain = 0
KRRS 112255Z 05006KT 30/11 A3008 RMK A01 T03000112  RH  032%=      5-min Rain = 0
KRRS 112300Z 03006KT 30/11 A3008 RMK A01 T03000112  RH  032%=      5-min Rain = 0
KRRS 112305Z 01004KT 30/11 A3008 RMK A01 T02990114  RH  032%=      5-min Rain = 0
KRRS 112310Z 02003KT 30/11 A3008 RMK A01 T03000112  RH  032%=      5-min Rain = 0
KRRS 112315Z 08004KT 30/11 A3008 RMK A01 T02980111  RH  032%=      5-min Rain = 0
KRRS 112320Z 06005KT 30/11 A3008 RMK A01 T02970112  RH  032%=      5-min Rain = 0
KRRS 112325Z 05005KT 30/11 A3008 RMK A01 T02960112  RH  033%=      5-min Rain = 0
KRRS 112330Z 04004KT 30/11 A3008 RMK A01 T02950112  RH  033%=      5-min Rain = 0
KRRS 112335Z 06007KT 29/11 A3008 RMK A01 T02940113  RH  033%=      5-min Rain = 0
KRRS 112340Z 05007KT 29/11 A3008 RMK A01 T02920111  RH  033%=      5-min Rain = 0
KRRS 112345Z 04007KT 29/11 A3008 RMK A01 T02910110  RH  033%=      5-min Rain = 0
KRRS 112350Z 04006KT 29/11 A3008 RMK A01 T02900110  RH  033%=      5-min Rain = 0
KRRS 112355Z 05005KT 29/11 A3008 RMK A01 T02880109  RH  034%=      5-min Rain = 0
KRRS 120000Z 06005KT 29/12 A3008 RMK A01 T02870116  RH  035%=      5-min Rain = 0
KRRS 120005Z 07005KT 28/12 A3008 RMK A01 T02830117  RH  036%=      5-min Rain = 0
KRRS 120010Z 07004KT 28/12 A3008 RMK A01 T02810119  RH  037%=      5-min Rain = 0
KRRS 120015Z 07005KT 28/12 A3008 RMK A01 T02780120  RH  038%=      5-min Rain = 0
KRRS 120020Z 07005KT 28/12 A3008 RMK A01 T02750123  RH  040%=      5-min Rain = 0
KRRS 120025Z 07005KT 27/13 A3008 RMK A01 T02710125  RH  041%=      5-min Rain = 0
KRRS 120030Z 08006KT 27/13 A3008 RMK A01 T02660126  RH  043%=      5-min Rain = 0
KRRS 120035Z 08005KT 26/13 A3008 RMK A01 T02620126  RH  044%=      5-min Rain = 0
KRRS 120040Z 08005KT 26/13 A3008 RMK A01 T02580126  RH  045%=      5-min Rain = 0
KRRS 120045Z 08005KT 26/13 A3008 RMK A01 T02550125  RH  045%=      5-min Rain = 0
KRRS 120050Z 07005KT 25/12 A3007 RMK A01 T02520124  RH  046%=      5-min Rain = 0
KRRS 120055Z 07006KT 25/12 A3007 RMK A01 T02500122  RH  046%=      5-min Rain = 0
KRRS 120100Z 07005KT 25/12 A3007 RMK A01 T02460122  RH  047%=      5-min Rain = 0
KRRS 120105Z 07005KT 24/12 A3008 RMK A01 T02430122  RH  047%=      5-min Rain = 0
KRRS 120110Z 07005KT 24/12 A3008 RMK A01 T02430121  RH  047%=      5-min Rain = 0
KRRS 120115Z 08005KT 24/12 A3008 RMK A01 T02420120  RH  047%=      5-min Rain = 0
KRRS 120120Z 08005KT 24/12 A3008 RMK A01 T02390121  RH  048%=      5-min Rain = 0
KRRS 120125Z 09004KT 24/12 A3008 RMK A01 T02370121  RH  049%=      5-min Rain = 0
KRRS 120130Z 09004KT 24/12 A3008 RMK A01 T02370119  RH  049%=      5-min Rain = 0
KRRS 120135Z 09005KT 24/12 A3008 RMK A01 T02360120  RH  049%=      5-min Rain = 0
KRRS 120140Z 09005KT 23/12 A3008 RMK A01 T02320120  RH  050%=      5-min Rain = 0
KRRS 120145Z 10005KT 23/12 A3008 RMK A01 T02310121  RH  051%=      5-min Rain = 0
KRRS 120150Z 10004KT 23/12 A3008 RMK A01 T02300121  RH  051%=      5-min Rain = 0
KRRS 120155Z 10004KT 23/12 A3008 RMK A01 T02300121  RH  051%=      5-min Rain = 0
KRRS 120200Z 10004KT 23/12 A3009 RMK A01 T02300121  RH  051%=      5-min Rain = 0
KRRS 120205Z 10004KT 23/12 A3009 RMK A01 T02300120  RH  051%=      5-min Rain = 0
KRRS 120210Z 12003KT 23/12 A3009 RMK A01 T02290120  RH  051%=      5-min Rain = 0
KRRS 120215Z 13002KT 23/12 A3009 RMK A01 T02250120  RH  052%=      5-min Rain = 0
KRRS 120220Z 16002KT 22/12 A3009 RMK A01 T02200119  RH  054%=      5-min Rain = 0
KRRS 120225Z 17002KT 22/12 A3009 RMK A01 T02200117  RH  053%=      5-min Rain = 0
KRRS 120230Z 17002KT 22/12 A3009 RMK A01 T02230117  RH  052%=      5-min Rain = 0
KRRS 120235Z 17002KT 22/12 A301 RMK A01 T02240117  RH  051%=      5-min Rain = 0
KRRS 120240Z 17002KT 22/12 A301 RMK A01 T02210116  RH  052%=      5-min Rain = 0
KRRS 120245Z 16003KT 22/12 A301 RMK A01 T02190116  RH  053%=      5-min Rain = 0
KRRS 120250Z 15003KT 22/12 A301 RMK A01 T02210115  RH  052%=      5-min Rain = 0
KRRS 120255Z 13004KT 22/12 A301 RMK A01 T02220116  RH  052%=      5-min Rain = 0
KRRS 120300Z 12004KT 22/12 A301 RMK A01 T02230116  RH  052%=      5-min Rain = 0
KRRS 120305Z 11004KT 22/12 A301 RMK A01 T02220116  RH  052%=      5-min Rain = 0
KRRS 120310Z 11005KT 22/12 A301 RMK A01 T02210117  RH  053%=      5-min Rain = 0
KRRS 120315Z 12005KT 22/12 A301 RMK A01 T02190117  RH  053%=      5-min Rain = 0
KRRS 120320Z 11005KT 22/12 A301 RMK A01 T02170117  RH  054%=      5-min Rain = 0
KRRS 120325Z 12005KT 22/12 A301 RMK A01 T02150116  RH  054%=      5-min Rain = 0
KRRS 120330Z 14004KT 21/12 A301 RMK A01 T02140116  RH  055%=      5-min Rain = 0
KRRS 120335Z 14004KT 21/12 A301 RMK A01 T02120115  RH  055%=      5-min Rain = 0
KRRS 120340Z 13005KT 21/12 A3011 RMK A01 T02110115  RH  055%=      5-min Rain = 0
KRRS 120345Z 14004KT 21/12 A3011 RMK A01 T02090115  RH  056%=      5-min Rain = 0
KRRS 120350Z 16003KT 21/12 A3011 RMK A01 T02080115  RH  056%=      5-min Rain = 0
KRRS 120355Z 14004KT 21/12 A3011 RMK A01 T02080115  RH  056%=      5-min Rain = 0
KRRS 120400Z 13005KT 21/12 A3011 RMK A01 T02090115  RH  056%=      5-min Rain = 0
KRRS 120405Z 14005KT 21/12 A3011 RMK A01 T02080115  RH  056%=      5-min Rain = 0
KRRS 120410Z 16004KT 21/12 A3011 RMK A01 T02050115  RH  057%=      5-min Rain = 0
KRRS 120415Z 16005KT 21/12 A3011 RMK A01 T02050115  RH  057%=      5-min Rain = 0
KRRS 120420Z 16005KT 20/12 A3011 RMK A01 T02020115  RH  058%=      5-min Rain = 0
KRRS 120425Z 17005KT 20/12 A3011 RMK A01 T02010116  RH  059%=      5-min Rain = 0
KRRS 120430Z 17005KT 20/12 A3011 RMK A01 T01990116  RH  060%=      5-min Rain = 0
KRRS 120435Z 18005KT 20/12 A3011 RMK A01 T01990115  RH  060%=      5-min Rain = 0
KRRS 120440Z 19004KT 20/11 A3011 RMK A01 T01960114  RH  060%=      5-min Rain = 0
KRRS 120445Z 20004KT 20/11 A3011 RMK A01 T01970114  RH  060%=      5-min Rain = 0
KRRS 120450Z 21004KT 20/11 A3011 RMK A01 T01950114  RH  061%=      5-min Rain = 0
KRRS 120455Z 21005KT 19/11 A3011 RMK A01 T01940114  RH  061%=      5-min Rain = 0

Page generated in 0.0382 seconds.